createdAt,value
2023-04-11T00:02:20.295Z,11.60
2023-04-11T00:04:47.449Z,11.60
2023-04-11T00:07:14.564Z,11.50
2023-04-11T00:09:41.687Z,11.60
2023-04-11T00:12:08.869Z,11.60
2023-04-11T00:14:38.648Z,11.60
2023-04-11T00:17:06.248Z,11.60
2023-04-11T00:19:33.633Z,11.50
2023-04-11T00:22:01.630Z,11.30
2023-04-11T00:24:29.312Z,11.20
2023-04-11T00:26:57.127Z,11.20
2023-04-11T00:29:24.225Z,11.30
2023-04-11T00:31:52.917Z,11.30
2023-04-11T00:34:20.146Z,11.30
2023-04-11T00:36:47.331Z,11.30
2023-04-11T00:39:14.547Z,11.20
2023-04-11T00:41:41.990Z,11.20
2023-04-11T00:44:10.973Z,11.20
2023-04-11T00:46:38.345Z,11.30
2023-04-11T00:49:05.418Z,11.30
2023-04-11T00:51:32.534Z,11.10
2023-04-11T00:54:01.412Z,11.10
2023-04-11T00:56:31.932Z,11.10
2023-04-11T00:58:59.375Z,11.00
2023-04-11T01:01:26.600Z,11.00
2023-04-11T01:03:54.021Z,11.10
2023-04-11T01:06:23.146Z,11.10
2023-04-11T01:08:50.301Z,11.20
2023-04-11T01:11:20.306Z,11.30
2023-04-11T01:13:47.556Z,11.30
2023-04-11T01:16:21.727Z,11.30
2023-04-11T01:18:54.640Z,11.40
2023-04-11T01:21:22.444Z,11.30
2023-04-11T01:23:52.825Z,11.30
2023-04-11T01:26:20.004Z,11.20
2023-04-11T01:28:47.099Z,11.10
2023-04-11T01:31:14.316Z,11.10
2023-04-11T01:33:43.501Z,11.10
2023-04-11T01:36:10.771Z,11.10
2023-04-11T01:38:39.353Z,11.20
2023-04-11T01:41:07.150Z,11.10
2023-04-11T01:43:34.426Z,11.00
2023-04-11T01:46:01.695Z,11.10
2023-04-11T01:48:29.014Z,11.10
2023-04-11T01:50:56.553Z,11.10
2023-04-11T01:53:23.687Z,11.10
2023-04-11T01:55:50.894Z,11.10
2023-04-11T01:58:18.020Z,11.10
2023-04-11T02:00:45.166Z,11.10
2023-04-11T02:03:31.034Z,11.10
2023-04-11T02:05:58.245Z,11.20
2023-04-11T02:08:25.572Z,11.10
2023-04-11T02:10:52.691Z,11.00
2023-04-11T02:13:19.718Z,11.00
2023-04-11T02:16:31.598Z,11.00
2023-04-11T02:21:39.612Z,11.10
2023-04-11T02:24:07.831Z,11.10
2023-04-11T02:26:34.899Z,11.00
2023-04-11T02:29:02.171Z,11.00
2023-04-11T02:31:29.539Z,11.10
2023-04-11T02:33:56.683Z,11.10
2023-04-11T02:36:23.742Z,11.10
2023-04-11T02:38:51.033Z,11.10
2023-04-11T02:41:18.151Z,11.10
2023-04-11T02:43:45.548Z,11.00
2023-04-11T02:46:13.462Z,11.10
2023-04-11T02:48:41.063Z,11.10
2023-04-11T02:51:08.445Z,11.10
2023-04-11T02:53:36.447Z,11.20
2023-04-11T02:56:03.598Z,11.10
2023-04-11T02:58:30.843Z,11.10
2023-04-11T03:00:57.908Z,11.10
2023-04-11T03:03:25.146Z,11.20
2023-04-11T03:05:52.392Z,11.10
2023-04-11T03:08:19.467Z,11.20
2023-04-11T03:10:46.526Z,11.20
2023-04-11T03:13:13.737Z,11.10
2023-04-11T03:15:41.933Z,11.10
2023-04-11T03:18:09.092Z,11.10
2023-04-11T03:20:36.142Z,11.10
2023-04-11T03:23:03.259Z,11.10
2023-04-11T03:25:30.365Z,11.20
2023-04-11T03:27:57.652Z,11.20
2023-04-11T03:30:24.970Z,11.20
2023-04-11T03:32:53.218Z,11.20
2023-04-11T03:35:21.013Z,11.20
2023-04-11T03:37:49.514Z,11.10
2023-04-11T03:40:18.870Z,11.10
2023-04-11T03:42:49.587Z,11.20
2023-04-11T03:45:17.252Z,11.10
2023-04-11T03:47:44.577Z,11.10
2023-04-11T03:50:11.802Z,11.10
2023-04-11T03:52:38.840Z,11.10
2023-04-11T03:55:06.356Z,11.10
2023-04-11T03:57:33.413Z,11.00
2023-04-11T04:00:01.242Z,11.10
2023-04-11T04:02:28.483Z,11.10
2023-04-11T04:04:56.016Z,11.10
2023-04-11T04:07:26.757Z,11.10
2023-04-11T04:09:54.077Z,11.00
2023-04-11T04:12:21.569Z,11.00
2023-04-11T04:14:48.746Z,11.10
2023-04-11T04:17:17.685Z,11.00
2023-04-11T04:19:44.905Z,11.00
2023-04-11T04:22:12.454Z,10.90
2023-04-11T04:24:42.284Z,10.80
2023-04-11T04:27:09.468Z,10.90
2023-04-11T04:29:46.480Z,10.90
2023-04-11T04:32:21.044Z,10.90
2023-04-11T04:34:55.268Z,10.90
2023-04-11T04:37:24.361Z,10.90
2023-04-11T04:39:54.328Z,10.80
2023-04-11T04:42:22.612Z,10.80
2023-04-11T04:44:50.541Z,10.80
2023-04-11T04:47:17.855Z,10.80
2023-04-11T04:49:45.146Z,10.80
2023-04-11T04:52:15.750Z,10.80
2023-04-11T04:54:43.159Z,10.80
2023-04-11T04:57:10.311Z,10.80
2023-04-11T04:59:37.407Z,10.90
2023-04-11T05:02:04.587Z,10.90
2023-04-11T05:04:34.478Z,11.00
2023-04-11T05:07:01.834Z,11.10
2023-04-11T05:09:29.310Z,11.10
2023-04-11T05:11:56.930Z,11.20
2023-04-11T05:14:24.036Z,11.10
2023-04-11T05:16:51.496Z,11.10
2023-04-11T05:19:18.553Z,11.20
2023-04-11T05:21:45.584Z,11.20
2023-04-11T05:24:12.699Z,11.30
2023-04-11T05:26:39.851Z,11.40
2023-04-11T05:29:06.917Z,11.40
2023-04-11T05:31:34.026Z,11.40
2023-04-11T05:34:01.346Z,11.30
2023-04-11T05:36:28.727Z,11.40
2023-04-11T05:38:56.124Z,11.40
2023-04-11T05:41:23.587Z,11.50
2023-04-11T05:43:51.110Z,11.60
2023-04-11T05:46:25.982Z,11.70
2023-04-11T05:48:53.103Z,11.80
2023-04-11T05:51:23.005Z,11.80
2023-04-11T05:53:50.106Z,11.90
2023-04-11T05:56:20.018Z,12.10
2023-04-11T05:58:59.047Z,12.10
2023-04-11T06:01:26.358Z,12.20
2023-04-11T06:03:53.627Z,12.30
2023-04-11T06:06:21.005Z,12.50
2023-04-11T06:08:48.394Z,12.50
2023-04-11T06:11:16.938Z,12.60
2023-04-11T06:13:44.018Z,12.60
2023-04-11T06:16:11.372Z,12.50
2023-04-11T06:18:38.498Z,12.60
2023-04-11T06:21:05.929Z,12.60
2023-04-11T06:23:33.064Z,12.60
2023-04-11T06:26:00.219Z,12.60
2023-04-11T06:28:27.631Z,12.60
2023-04-11T06:30:55.119Z,12.50
2023-04-11T06:33:23.792Z,12.40
2023-04-11T06:35:51.186Z,12.40
2023-04-11T06:38:18.618Z,12.30
2023-04-11T06:40:46.307Z,12.40
2023-04-11T06:43:13.583Z,12.50
2023-04-11T06:45:40.888Z,12.60
2023-04-11T06:48:09.130Z,12.80
2023-04-11T06:50:42.227Z,12.90
2023-04-11T06:53:09.985Z,13.00
2023-04-11T06:55:40.396Z,13.20
2023-04-11T06:58:10.382Z,13.40
2023-04-11T07:00:39.104Z,13.60
2023-04-11T07:03:09.728Z,13.80
2023-04-11T07:05:39.854Z,14.10
2023-04-11T07:08:13.707Z,14.40
2023-04-11T07:10:42.594Z,14.60
2023-04-11T07:13:12.665Z,14.80
2023-04-11T07:15:40.594Z,14.90
2023-04-11T07:18:08.224Z,15.00
2023-04-11T07:20:40.006Z,15.20
2023-04-11T07:23:08.935Z,15.40
2023-04-11T07:25:40.145Z,15.50
2023-04-11T07:28:13.951Z,15.60
2023-04-11T07:30:43.432Z,15.70
2023-04-11T07:33:11.510Z,15.70
2023-04-11T07:35:43.423Z,15.80
2023-04-11T07:38:12.398Z,16.10
2023-04-11T07:40:40.377Z,16.40
2023-04-11T07:43:09.317Z,16.60
2023-04-11T07:45:37.308Z,16.80
2023-04-11T07:48:04.805Z,16.80
2023-04-11T07:50:32.009Z,17.10
2023-04-11T07:53:01.701Z,17.40
2023-04-11T07:55:29.184Z,17.70
2023-04-11T07:57:56.385Z,17.80
2023-04-11T08:03:08.402Z,17.90
2023-04-11T08:05:36.469Z,17.80
2023-04-11T08:08:04.918Z,17.90
2023-04-11T08:10:32.319Z,18.00
2023-04-11T08:12:59.983Z,18.10
2023-04-11T08:15:27.538Z,18.10
2023-04-11T08:17:58.605Z,18.20
2023-04-11T08:20:26.791Z,18.20
2023-04-11T08:22:54.755Z,18.30
2023-04-11T08:25:23.955Z,18.50
2023-04-11T08:27:51.360Z,18.80
2023-04-11T08:30:18.574Z,19.00
2023-04-11T08:32:46.043Z,19.20
2023-04-11T08:35:13.198Z,19.30
2023-04-11T08:37:40.554Z,19.20
2023-04-11T08:40:41.630Z,19.20
2023-04-11T08:43:12.381Z,19.30
2023-04-11T08:45:40.539Z,19.50
2023-04-11T08:48:08.299Z,19.60
2023-04-11T08:50:42.510Z,19.80
2023-04-11T08:53:14.090Z,19.80
2023-04-11T08:55:47.973Z,19.60
2023-04-11T08:58:15.874Z,19.70
2023-04-11T09:00:43.390Z,19.70
2023-04-11T09:03:12.267Z,19.90
2023-04-11T09:05:41.102Z,20.10
2023-04-11T09:08:09.803Z,19.80
2023-04-11T09:10:38.154Z,20.00
2023-04-11T09:13:24.433Z,20.40
2023-04-11T09:16:09.718Z,20.40
2023-04-11T09:18:41.529Z,20.30
2023-04-11T09:21:12.947Z,20.30
2023-04-11T09:23:41.246Z,20.60
2023-04-11T09:26:09.480Z,20.70
2023-04-11T09:28:52.657Z,20.70
2023-04-11T09:31:25.783Z,20.60
2023-04-11T09:33:55.107Z,21.10
2023-04-11T09:36:27.413Z,21.50
2023-04-11T09:39:17.340Z,21.80
2023-04-11T09:41:46.003Z,22.00
2023-04-11T09:44:13.760Z,22.20
2023-04-11T09:46:57.766Z,22.50
2023-04-11T09:49:30.251Z,22.80
2023-04-11T09:51:58.785Z,22.80
2023-04-11T09:54:28.532Z,22.90
2023-04-11T09:56:58.554Z,23.20
2023-04-11T09:59:28.944Z,23.30
2023-04-11T10:01:57.511Z,23.50
2023-04-11T10:04:29.003Z,23.50
2023-04-11T10:07:17.271Z,23.80
2023-04-11T10:09:44.683Z,24.00
2023-04-11T10:12:13.695Z,23.70
2023-04-11T10:14:53.504Z,24.00
2023-04-11T10:17:24.279Z,24.50
2023-04-11T10:34:13.709Z,23.80
2023-04-11T10:37:07.948Z,24.30
2023-04-11T10:45:32.225Z,24.40
2023-04-11T10:48:25.801Z,24.70
2023-04-11T10:50:53.170Z,25.40
2023-04-11T10:53:37.472Z,26.00
2023-04-11T10:56:05.100Z,26.20
2023-04-11T10:58:59.183Z,26.30
2023-04-11T11:01:31.979Z,26.40
2023-04-11T11:04:06.373Z,26.40
2023-04-11T11:06:50.990Z,26.60
2023-04-11T11:09:26.835Z,26.30
2023-04-11T11:12:10.377Z,26.20
2023-04-11T11:14:38.318Z,26.10
2023-04-11T11:17:06.864Z,26.20
2023-04-11T11:19:34.854Z,26.40
2023-04-11T11:22:06.659Z,26.40
2023-04-11T11:24:33.905Z,26.40
2023-04-11T11:27:01.090Z,26.40
2023-04-11T11:29:35.405Z,26.20
2023-04-11T11:32:04.624Z,26.00
2023-04-11T11:34:33.035Z,26.00
2023-04-11T11:37:09.167Z,25.70
2023-04-11T11:39:36.555Z,25.60
2023-04-11T11:42:12.202Z,25.60
2023-04-11T11:45:18.432Z,25.90
2023-04-11T11:52:04.342Z,26.90
2023-04-11T11:54:33.940Z,27.20
2023-04-11T11:57:05.195Z,27.30
2023-04-11T11:59:34.421Z,27.20
2023-04-11T12:21:58.496Z,26.50
2023-04-11T12:24:28.920Z,26.70
2023-04-11T12:27:06.263Z,26.90
2023-04-11T13:02:27.147Z,26.60
2023-04-11T13:04:55.687Z,26.70
2023-04-11T13:07:25.058Z,26.70
2023-04-11T13:09:53.646Z,26.60
2023-04-11T13:12:21.188Z,26.50
2023-04-11T13:14:54.020Z,26.50
2023-04-11T13:17:21.645Z,26.60
2023-04-11T13:19:49.157Z,26.50
2023-04-11T13:22:16.542Z,26.60
2023-04-11T13:24:43.824Z,26.60
2023-04-11T13:27:11.219Z,26.50
2023-04-11T13:29:40.172Z,26.30
2023-04-11T13:32:07.705Z,26.20
2023-04-11T13:34:36.421Z,26.10
2023-04-11T13:37:08.616Z,25.90
2023-04-11T13:39:48.954Z,25.80
2023-04-11T13:42:16.768Z,25.90
2023-04-11T13:44:45.605Z,25.90
2023-04-11T13:47:13.713Z,25.80
2023-04-11T13:53:23.047Z,25.50
2023-04-11T13:55:52.487Z,25.40
2023-04-11T13:58:20.107Z,25.30
2023-04-11T14:00:53.582Z,25.30
2023-04-11T14:03:21.398Z,25.30
2023-04-11T14:09:16.548Z,25.50
2023-04-11T14:11:50.505Z,25.70
2023-04-11T14:14:17.863Z,25.80
2023-04-11T14:16:57.056Z,25.80
2023-04-11T14:19:26.155Z,25.60
2023-04-11T14:21:55.844Z,25.50
2023-04-11T14:24:26.625Z,25.40
2023-04-11T14:26:53.999Z,25.30
2023-04-11T14:29:27.476Z,25.00
2023-04-11T14:31:58.255Z,24.80
2023-04-11T14:34:29.226Z,24.50
2023-04-11T14:39:45.599Z,24.30
2023-04-11T14:42:13.605Z,24.30
2023-04-11T14:44:53.523Z,24.40
2023-04-11T14:47:25.173Z,24.30
2023-04-11T14:49:56.105Z,24.30
2023-04-11T14:52:55.001Z,24.30
2023-04-11T14:55:56.299Z,24.20
2023-04-11T14:58:28.607Z,24.20
2023-04-11T15:00:58.600Z,24.20
2023-04-11T15:03:34.026Z,24.10
2023-04-11T15:06:21.551Z,24.10
2023-04-11T15:09:21.495Z,24.00
2023-04-11T15:11:53.869Z,23.80
2023-04-11T15:14:39.920Z,23.60
2023-04-11T15:17:07.779Z,23.40
2023-04-11T15:19:35.189Z,23.30
2023-04-11T15:22:03.669Z,23.30
2023-04-11T15:24:31.179Z,23.20
2023-04-11T15:27:01.619Z,23.10
2023-04-11T15:29:29.426Z,23.00
2023-04-11T15:31:59.784Z,22.90
2023-04-11T15:34:28.343Z,22.70
2023-04-11T15:36:57.052Z,22.70
2023-04-11T15:39:24.296Z,22.60
2023-04-11T15:41:52.626Z,22.60
2023-04-11T15:44:20.114Z,22.50
2023-04-11T15:46:49.331Z,22.50
2023-04-11T15:49:17.663Z,22.40
2023-04-11T15:51:46.618Z,22.30
2023-04-11T15:54:14.022Z,22.20
2023-04-11T15:56:41.210Z,22.20
2023-04-11T15:59:11.694Z,22.20
2023-04-11T16:01:40.571Z,22.20
2023-04-11T16:04:09.238Z,22.20
2023-04-11T16:06:38.221Z,22.10
2023-04-11T16:09:05.561Z,22.10
2023-04-11T16:11:33.870Z,22.10
2023-04-11T16:14:01.274Z,22.00
2023-04-11T16:16:32.033Z,22.00
2023-04-11T16:19:00.150Z,22.10
2023-04-11T16:21:27.628Z,22.10
2023-04-11T16:24:23.247Z,22.10
2023-04-11T16:26:48.474Z,22.00
2023-04-11T16:29:42.662Z,21.90
2023-04-11T16:32:32.119Z,21.90
2023-04-11T16:35:00.355Z,21.80
2023-04-11T16:37:36.729Z,21.80
2023-04-11T16:40:15.478Z,21.70
2023-04-11T16:45:46.958Z,21.70
2023-04-11T16:48:18.181Z,21.60
2023-04-11T16:50:45.325Z,21.50
2023-04-11T16:53:12.657Z,21.40
2023-04-11T16:55:40.318Z,21.40
2023-04-11T16:58:08.903Z,21.30
2023-04-11T17:00:36.971Z,21.20
2023-04-11T17:03:04.628Z,21.10
2023-04-11T17:05:35.043Z,21.00
2023-04-11T17:08:02.373Z,20.80
2023-04-11T17:10:29.910Z,20.80
2023-04-11T17:12:58.724Z,20.60
2023-04-11T17:15:26.677Z,20.50
2023-04-11T17:17:54.737Z,20.30
2023-04-11T17:20:22.669Z,20.30
2023-04-11T17:22:50.213Z,20.20
2023-04-11T17:25:17.689Z,20.10
2023-04-11T17:27:44.960Z,20.00
2023-04-11T17:30:12.581Z,19.90
2023-04-11T17:32:45.875Z,19.80
2023-04-11T17:35:13.316Z,19.70
2023-04-11T17:37:40.492Z,19.60
2023-04-11T17:40:13.513Z,19.50
2023-04-11T17:42:41.359Z,19.40
2023-04-11T17:47:43.552Z,19.20
2023-04-11T17:50:11.898Z,19.10
2023-04-11T17:52:44.018Z,19.10
2023-04-11T17:55:13.146Z,19.10
2023-04-11T17:57:40.832Z,19.00
2023-04-11T18:00:18.018Z,19.00
2023-04-11T18:02:46.977Z,19.00
2023-04-11T18:05:23.154Z,19.00
2023-04-11T18:07:54.385Z,19.00
2023-04-11T18:10:22.237Z,18.90
2023-04-11T18:12:51.362Z,18.90
2023-04-11T18:15:24.826Z,18.90
2023-04-11T18:17:54.388Z,18.80
2023-04-11T18:20:25.409Z,18.70
2023-04-11T18:22:59.588Z,18.70
2023-04-11T18:25:27.174Z,18.70
2023-04-11T18:27:54.445Z,18.60
2023-04-11T18:30:21.589Z,18.50
2023-04-11T18:32:50.984Z,18.40
2023-04-11T18:35:18.768Z,18.40
2023-04-11T18:37:46.095Z,18.40
2023-04-11T18:40:14.407Z,18.40
2023-04-11T18:42:43.030Z,18.40
2023-04-11T18:45:12.112Z,18.40
2023-04-11T18:47:59.343Z,18.30
2023-04-11T18:50:27.798Z,18.20
2023-04-11T18:52:56.638Z,18.20
2023-04-11T18:55:25.421Z,18.20
2023-04-11T18:57:57.950Z,18.20
2023-04-11T19:00:29.831Z,18.10
2023-04-11T19:02:57.942Z,18.10
2023-04-11T19:05:25.911Z,18.10
2023-04-11T19:07:54.901Z,18.00
2023-04-11T19:10:22.602Z,17.90
2023-04-11T19:12:50.207Z,17.90
2023-04-11T19:15:17.476Z,17.80
2023-04-11T19:17:44.789Z,17.80
2023-04-11T19:20:17.203Z,17.70
2023-04-11T19:22:46.494Z,17.60
2023-04-11T19:25:14.698Z,17.60
2023-04-11T19:27:42.722Z,17.60
2023-04-11T19:30:14.327Z,17.60
2023-04-11T19:32:43.909Z,17.40
2023-04-11T19:35:11.724Z,17.30
2023-04-11T19:37:39.787Z,17.10
2023-04-11T19:40:07.913Z,17.00
2023-04-11T19:42:37.413Z,17.00
2023-04-11T19:45:05.274Z,17.10
2023-04-11T19:47:33.164Z,17.10
2023-04-11T19:50:01.242Z,17.10
2023-04-11T19:52:28.922Z,17.10
2023-04-11T19:54:56.649Z,17.20
2023-04-11T19:57:25.956Z,17.10
2023-04-11T19:59:53.169Z,17.20
2023-04-11T20:02:21.771Z,17.30
2023-04-11T20:04:49.799Z,17.30
2023-04-11T20:07:18.012Z,17.30
2023-04-11T20:09:45.715Z,17.30
2023-04-11T20:12:13.375Z,17.30
2023-04-11T20:14:44.153Z,17.20
2023-04-11T20:17:11.613Z,17.10
2023-04-11T20:19:42.051Z,17.20
2023-04-11T20:22:13.661Z,17.10
2023-04-11T20:24:41.636Z,17.10
2023-04-11T20:27:19.338Z,17.10
2023-04-11T20:29:46.872Z,17.00
2023-04-11T20:32:14.310Z,17.00
2023-04-11T20:34:41.534Z,16.90
2023-04-11T20:37:09.552Z,16.90
2023-04-11T20:39:37.671Z,16.90
2023-04-11T20:42:08.611Z,16.90
2023-04-11T20:44:38.602Z,16.80
2023-04-11T20:47:07.730Z,16.80
2023-04-11T20:49:37.882Z,16.90
2023-04-11T20:52:07.728Z,16.80
2023-04-11T20:54:47.254Z,16.80
2023-04-11T20:57:15.112Z,16.80
2023-04-11T21:00:07.436Z,16.80
2023-04-11T21:02:37.911Z,16.70
2023-04-11T21:05:06.491Z,16.60
2023-04-11T21:07:33.815Z,16.60
2023-04-11T21:10:02.038Z,16.50
2023-04-11T21:12:29.645Z,16.60
2023-04-11T21:14:59.157Z,16.60
2023-04-11T21:17:26.588Z,16.60
2023-04-11T21:19:54.270Z,16.60
2023-04-11T21:22:21.859Z,16.60
2023-04-11T21:24:49.329Z,16.60
2023-04-11T21:27:16.924Z,16.60
2023-04-11T21:29:44.263Z,16.60
2023-04-11T21:32:11.932Z,16.50
2023-04-11T21:34:39.270Z,16.50
2023-04-11T21:37:06.680Z,16.40
2023-04-11T21:39:34.105Z,16.40
2023-04-11T21:42:01.664Z,16.20
2023-04-11T21:44:31.383Z,16.30
2023-04-11T21:46:59.931Z,16.10
2023-04-11T21:49:27.400Z,16.20
2023-04-11T21:51:55.153Z,16.10
2023-04-11T21:54:22.445Z,16.10
2023-04-11T21:56:50.047Z,16.10
2023-04-11T21:59:19.710Z,16.10
2023-04-11T22:01:48.495Z,16.10
2023-04-11T22:04:18.286Z,16.10
2023-04-11T22:06:48.777Z,16.00
2023-04-11T22:09:16.326Z,16.00
2023-04-11T22:11:43.628Z,15.90
2023-04-11T22:14:16.459Z,15.90
2023-04-11T22:16:49.604Z,15.90
2023-04-11T22:19:18.310Z,15.90
2023-04-11T22:21:49.058Z,15.90
2023-04-11T22:24:16.133Z,15.80
2023-04-11T22:26:50.876Z,15.70
2023-04-11T22:29:18.677Z,15.60
2023-04-11T22:31:47.853Z,15.60
2023-04-11T22:34:15.057Z,15.50
2023-04-11T22:36:43.348Z,15.40
2023-04-11T22:39:10.822Z,15.40
2023-04-11T22:41:39.166Z,15.30
2023-04-11T22:44:06.863Z,15.20
2023-04-11T22:46:39.099Z,15.20
2023-04-11T22:49:07.076Z,15.20
2023-04-11T22:51:34.676Z,15.30
2023-04-11T22:54:02.677Z,15.40
2023-04-11T22:56:29.811Z,15.50
2023-04-11T22:59:06.676Z,15.60
2023-04-11T23:01:46.397Z,15.60
2023-04-11T23:07:40.939Z,15.50
2023-04-11T23:19:45.413Z,15.40
2023-04-11T23:22:58.137Z,15.50
2023-04-11T23:25:27.213Z,15.40
2023-04-11T23:27:59.911Z,15.30
2023-04-11T23:30:40.440Z,15.20
2023-04-11T23:33:09.317Z,15.20
2023-04-11T23:35:41.174Z,15.20
2023-04-11T23:38:20.710Z,15.20
2023-04-11T23:40:48.030Z,15.20
2023-04-11T23:43:15.352Z,15.00
2023-04-11T23:45:46.002Z,15.00
2023-04-11T23:48:17.049Z,15.10
2023-04-11T23:50:47.428Z,15.20
2023-04-11T23:56:21.495Z,15.30
2023-04-11T23:59:05.057Z,15.40
